Aviation Digital Data Service (ADDS)

Output produced by METARs form (0856 UTC 23 July 2019)
found at http://www.aviationweather.gov/metar/data/
 
Forecast for: RJCM (MEMAMBETSU AIRPO, JP)
Text: TAF RJCM 230520Z 2306/2412 19016KT 9999 FEW015 SCT040
Forecast period: 0600 UTC 23 July 2019 to 1200 UTC 24 July 2019
Forecast type: FROM: standard forecast or significant change
Winds: from the S (190 degrees) at 18 MPH (16 knots; 8.2 m/s)
Visibility: 6 or more miles 10+ km)
Ceiling: at least 12,000 feet AGL
Clouds: few clouds at 1500 feet AGL
scattered clouds at 4000 feet AGL
Weather: no significant weather forecast for this period